Time;durP1;ratioP1;P1;durP2;ratioP2;P2;SDS_P1;SDS_P2;PMS_P1;PMS_P2;Temp;Humidity;BMP_temperature;BMP_pressure;BME280_temperature;BME280_humidity;BME280_pressure;Samples;Min_cycle;Max_cycle;Signal;HPM_P1;HPM_P2
2021/06/23 00:01:39;;;;;;;;;;;;;;;24.22;48.53;100444.00;5144383;27;20378;-71
2021/06/23 00:04:24;;;;;;;;;;;;;;;24.21;48.46;100447.97;5146278;27;19915;-72
2021/06/23 00:07:09;;;;;;;;;;;;;;;24.27;47.79;100440.75;5142898;27;19915;-71
2021/06/23 00:09:53;;;;;;;;;;;;;;;24.25;48.10;100449.50;5141674;27;19916;-74
2021/06/23 00:12:37;;;;;;;;;;;;;;;24.16;48.22;100446.41;5139471;27;19919;-71
2021/06/23 00:15:22;;;;;;;;;;;;;;;24.14;47.86;100446.00;5137310;27;19919;-73
2021/06/23 00:18:07;;;;;;;;;;;;;;;24.03;48.21;100447.31;5139992;27;20398;-73
2021/06/23 00:20:52;;;;;;;;;;;;;;;23.98;48.88;100439.44;5139707;27;19915;-73
2021/06/23 00:23:37;;;;;;;;;;;;;;;24.13;50.08;100443.63;5146244;27;19920;-75
2021/06/23 00:26:21;;;;;;;;;;;;;;;24.06;50.14;100440.97;5130076;27;20393;-73
2021/06/23 00:29:05;;;;;;;;;;;;;;;24.08;52.09;100447.66;5144881;27;19915;-73
2021/06/23 00:31:50;;;;;;;;;;;;;;;23.77;52.69;100446.78;5143773;27;20375;-74
2021/06/23 00:34:35;;;;;;;;;;;;;;;23.72;52.72;100444.44;5142537;27;19916;-74
2021/06/23 00:37:19;;;;;;;;;;;;;;;23.75;49.72;100446.44;5143964;27;19916;-74
2021/06/23 00:40:04;;;;;;;;;;;;;;;24.09;50.67;100454.00;5146783;27;19916;-75
2021/06/23 00:42:51;;;;;;;;;;;;;;;24.87;50.11;100467.00;5133725;27;19919;-75
2021/06/23 00:45:36;;;;;;;;;;;;;;;25.64;47.02;100469.84;5124835;27;19915;-75
2021/06/23 00:48:27;;;;;;;;;;;;;;;25.84;45.76;100481.84;5132034;27;19919;-75
2021/06/23 00:51:14;;;;;;;;;;;;;;;25.91;45.89;100484.47;5130431;27;19915;-73
2021/06/23 00:54:22;;;;;;;;;;;;;;;25.61;47.18;100479.81;5137287;27;19919;-73
2021/06/23 00:57:08;;;;;;;;;;;;;;;25.80;46.85;100489.47;5132290;27;19916;-73
2021/06/23 00:59:54;;;;;;;;;;;;;;;26.14;44.56;100489.25;5128808;27;19915;-74
2021/06/23 01:02:40;;;;;;;;;;;;;;;25.88;45.00;100485.34;5129138;27;19919;-73
2021/06/23 01:05:26;;;;;;;;;;;;;;;25.73;46.19;100479.25;5124998;27;20282;-73
2021/06/23 01:08:11;;;;;;;;;;;;;;;25.42;45.10;100477.72;5141364;27;19915;-73
2021/06/23 01:11:07;;;;;;;;;;;;;;;25.72;46.23;100471.28;5148382;27;20282;-73
2021/06/23 01:14:04;;;;;;;;;;;;;;;25.40;45.47;100478.16;5109596;27;19915;-71
2021/06/23 01:16:48;;;;;;;;;;;;;;;25.63;46.36;100463.50;5142116;27;20290;-73
2021/06/23 01:19:36;;;;;;;;;;;;;;;24.92;46.54;100458.22;5137018;27;20314;-73
2021/06/23 01:22:22;;;;;;;;;;;;;;;23.91;48.21;100451.44;5132834;27;19919;-72
2021/06/23 01:25:12;;;;;;;;;;;;;;;23.85;48.96;100448.31;5144411;27;19915;-73
2021/06/23 01:27:57;;;;;;;;;;;;;;;23.75;49.95;100451.97;5111014;27;19916;-73
2021/06/23 01:30:44;;;;;;;;;;;;;;;23.86;51.76;100461.00;5120168;27;19915;-73
2021/06/23 01:33:58;;;;;;;;;;;;;;;23.50;50.56;100454.19;5137952;27;19934;-72
2021/06/23 01:36:43;;;;;;;;;;;;;;;23.83;50.98;100461.81;5145372;27;19915;-73
2021/06/23 01:39:27;;;;;;;;;;;;;;;24.14;49.64;100462.69;5144766;27;19915;-74
2021/06/23 01:42:13;;;;;;;;;;;;;;;24.24;48.88;100459.03;5120644;27;19919;-72
2021/06/23 01:44:59;;;;;;;;;;;;;;;24.22;48.41;100453.13;5128730;27;19915;-74
2021/06/23 01:47:43;;;;;;;;;;;;;;;23.51;49.85;100447.44;5145903;27;19915;-74
2021/06/23 01:50:28;;;;;;;;;;;;;;;23.43;50.41;100437.56;5146902;27;19915;-74
2021/06/23 01:53:16;;;;;;;;;;;;;;;23.17;51.65;100438.16;5140360;27;20483;-74
2021/06/23 01:56:00;;;;;;;;;;;;;;;23.30;51.87;100439.25;5132239;27;19923;-72
2021/06/23 01:58:45;;;;;;;;;;;;;;;23.64;51.55;100439.38;5143679;27;19915;-74
2021/06/23 02:02:05;;;;;;;;;;;;;;;23.85;50.62;100448.31;5124698;27;19919;-74
2021/06/23 02:05:05;;;;;;;;;;;;;;;24.01;51.02;100446.97;5140867;27;19915;-74
2021/06/23 02:08:06;;;;;;;;;;;;;;;23.33;52.45;100444.78;5124538;27;19919;-75
2021/06/23 02:11:07;;;;;;;;;;;;;;;23.55;51.45;100444.63;5132018;27;19916;-73
2021/06/23 02:14:14;;;;;;;;;;;;;;;23.83;51.62;100436.81;5148456;27;19915;-74
2021/06/23 02:17:20;;;;;;;;;;;;;;;23.92;51.09;100444.69;5142826;27;19915;-74
2021/06/23 02:20:16;;;;;;;;;;;;;;;24.21;51.03;100439.63;5127233;27;20286;-74
2021/06/23 02:23:04;;;;;;;;;;;;;;;24.41;49.21;100439.78;5133460;27;19927;-74
2021/06/23 02:25:50;;;;;;;;;;;;;;;24.36;50.48;100446.59;5140424;27;19915;-74
2021/06/23 02:28:38;;;;;;;;;;;;;;;24.41;50.00;100446.13;5141117;27;19923;-72
2021/06/23 02:31:27;;;;;;;;;;;;;;;24.50;49.89;100438.06;5127525;27;20415;-72
2021/06/23 02:34:14;;;;;;;;;;;;;;;24.30;49.85;100448.25;5133582;27;19920;-72
2021/06/23 02:37:19;;;;;;;;;;;;;;;23.39;51.51;100437.59;5128877;27;19915;-73
2021/06/23 02:40:05;;;;;;;;;;;;;;;23.10;52.15;100440.97;5147144;27;19916;-73
2021/06/23 02:42:54;;;;;;;;;;;;;;;22.62;52.92;100444.41;5104980;27;20325;-73
2021/06/23 02:45:38;;;;;;;;;;;;;;;21.94;55.08;100452.13;5109951;27;19915;-74
2021/06/23 02:48:25;;;;;;;;;;;;;;;22.03;55.46;100455.28;5106853;27;19916;-72
2021/06/23 02:51:24;;;;;;;;;;;;;;;22.02;55.12;100452.91;5100029;27;19915;-72
2021/06/23 02:54:13;;;;;;;;;;;;;;;22.35;54.87;100449.66;5124925;27;19916;-72
2021/06/23 02:57:28;;;;;;;;;;;;;;;22.56;54.26;100457.09;5102887;27;19923;-73
2021/06/23 03:00:14;;;;;;;;;;;;;;;22.44;53.83;100455.56;5107291;27;19919;-72
2021/06/23 03:03:03;;;;;;;;;;;;;;;22.78;54.41;100452.25;5125246;27;19916;-72
2021/06/23 03:05:49;;;;;;;;;;;;;;;22.89;53.37;100453.78;5102582;27;19915;-73
2021/06/23 03:08:35;;;;;;;;;;;;;;;22.55;53.31;100461.84;5103745;27;19915;-72
2021/06/23 03:11:20;;;;;;;;;;;;;;;22.47;54.00;100465.03;5104008;27;19924;-74
2021/06/23 03:14:23;;;;;;;;;;;;;;;22.10;54.82;100463.56;5119045;27;20306;-74
2021/06/23 03:17:10;;;;;;;;;;;;;;;22.24;54.71;100453.66;5109101;27;19916;-74
2021/06/23 03:19:56;;;;;;;;;;;;;;;22.05;54.99;100446.56;5104738;27;19919;-72
2021/06/23 03:22:41;;;;;;;;;;;;;;;22.05;55.33;100444.59;5106110;27;19915;-74
2021/06/23 03:25:26;;;;;;;;;;;;;;;22.12;55.79;100455.66;5118362;27;19916;-73
2021/06/23 03:28:11;;;;;;;;;;;;;;;22.08;55.47;100471.50;5117719;27;19916;-72
2021/06/23 03:30:59;;;;;;;;;;;;;;;22.17;55.08;100469.09;5107467;27;19915;-72
2021/06/23 03:33:49;;;;;;;;;;;;;;;22.09;55.06;100469.53;5099375;28;19915;-72
2021/06/23 03:36:52;;;;;;;;;;;;;;;22.01;55.45;100465.97;5112304;27;19920;-72
2021/06/23 03:39:37;;;;;;;;;;;;;;;22.02;55.79;100470.31;5108725;27;20302;-73
2021/06/23 03:42:25;;;;;;;;;;;;;;;22.02;55.68;100470.31;5119034;27;19915;-71
2021/06/23 03:45:13;;;;;;;;;;;;;;;22.37;56.06;100477.75;5098096;28;20287;-72
2021/06/23 03:47:58;;;;;;;;;;;;;;;22.25;56.39;100491.25;5123819;27;20383;-72
2021/06/23 03:50:46;;;;;;;;;;;;;;;21.94;56.83;100487.38;5103287;28;20549;-73
2021/06/23 03:53:31;;;;;;;;;;;;;;;21.89;57.07;100496.81;5110940;27;20291;-72
2021/06/23 03:56:20;;;;;;;;;;;;;;;22.23;57.07;100493.63;5112866;27;19916;-73
2021/06/23 03:59:05;;;;;;;;;;;;;;;22.39;56.34;100499.53;5103970;27;19923;-71
2021/06/23 04:01:50;;;;;;;;;;;;;;;22.27;56.74;100506.28;5121506;27;20283;-72
2021/06/23 04:04:37;;;;;;;;;;;;;;;22.01;56.33;100504.75;5123299;27;19919;-72
2021/06/23 04:07:32;;;;;;;;;;;;;;;21.84;56.91;100518.59;5118593;27;19923;-72
2021/06/23 04:10:17;;;;;;;;;;;;;;;21.92;56.68;100520.94;5122096;27;19920;-73
2021/06/23 04:13:02;;;;;;;;;;;;;;;21.80;56.70;100526.88;5115403;27;19919;-72
2021/06/23 04:15:47;;;;;;;;;;;;;;;22.07;56.45;100519.78;5124471;27;20287;-72
2021/06/23 04:18:32;;;;;;;;;;;;;;;22.15;55.83;100534.38;5106986;27;19915;-72
2021/06/23 04:21:18;;;;;;;;;;;;;;;22.70;54.96;100539.41;5126469;27;19919;-72
2021/06/23 04:24:05;;;;;;;;;;;;;;;23.12;54.02;100544.00;5114806;27;19915;-71
2021/06/23 04:26:53;;;;;;;;;;;;;;;23.45;52.44;100551.78;5112002;27;20383;-72
2021/06/23 04:29:38;;;;;;;;;;;;;;;24.05;50.84;100561.63;5106259;28;19916;-71
2021/06/23 04:32:24;;;;;;;;;;;;;;;24.45;49.50;100566.41;5126735;27;19916;-72
2021/06/23 04:35:17;;;;;;;;;;;;;;;24.44;50.02;100566.81;5110524;27;20379;-71
2021/06/23 04:38:03;;;;;;;;;;;;;;;24.01;51.23;100560.88;5123213;27;20402;-72
2021/06/23 04:40:47;;;;;;;;;;;;;;;24.06;51.01;100563.22;5125560;27;19920;-72
2021/06/23 04:43:32;;;;;;;;;;;;;;;23.86;51.31;100561.00;5106046;27;19916;-72
2021/06/23 04:46:17;;;;;;;;;;;;;;;23.70;51.86;100574.59;5110615;27;19915;-71
2021/06/23 04:49:02;;;;;;;;;;;;;;;23.72;53.29;100572.19;5112228;27;19915;-71
2021/06/23 04:52:13;;;;;;;;;;;;;;;23.24;55.71;100571.28;5119433;27;19927;-71
2021/06/23 04:54:57;;;;;;;;;;;;;;;23.75;53.80;100568.63;5126879;27;19915;-72
2021/06/23 04:57:43;;;;;;;;;;;;;;;23.93;52.81;100568.47;5120541;27;19920;-71
2021/06/23 05:00:28;;;;;;;;;;;;;;;23.98;53.37;100572.78;5122393;27;19920;-72
2021/06/23 05:03:13;;;;;;;;;;;;;;;23.98;52.99;100570.00;5113000;27;19920;-72
2021/06/23 05:05:59;;;;;;;;;;;;;;;24.07;52.76;100578.69;5120393;27;19916;-72
2021/06/23 05:08:44;;;;;;;;;;;;;;;24.20;51.74;100585.34;5120555;27;20378;-72
2021/06/23 05:11:29;;;;;;;;;;;;;;;24.24;51.76;100591.63;5121244;27;19915;-72
2021/06/23 05:14:13;;;;;;;;;;;;;;;24.31;52.44;100591.59;5118089;27;19920;-72
2021/06/23 05:16:57;;;;;;;;;;;;;;;24.06;52.43;100599.31;5121433;27;19923;-72
2021/06/23 05:19:42;;;;;;;;;;;;;;;23.97;53.14;100596.22;5130850;27;19919;-72
2021/06/23 05:22:27;;;;;;;;;;;;;;;24.39;51.58;100595.06;5124934;27;19916;-73
2021/06/23 05:25:11;;;;;;;;;;;;;;;24.66;50.00;100599.56;5099316;27;20351;-72
2021/06/23 05:27:56;;;;;;;;;;;;;;;24.88;49.99;100607.72;5119406;27;19919;-73
2021/06/23 05:30:40;;;;;;;;;;;;;;;25.12;49.22;100607.41;5112632;27;20395;-72
2021/06/23 05:33:26;;;;;;;;;;;;;;;25.33;48.54;100609.13;5120028;27;20786;-71
2021/06/23 05:36:10;;;;;;;;;;;;;;;25.48;48.44;100606.94;5112185;27;19915;-71
2021/06/23 05:38:55;;;;;;;;;;;;;;;25.61;48.11;100615.50;5115356;27;19916;-73
2021/06/23 05:41:39;;;;;;;;;;;;;;;25.83;47.66;100612.00;5124205;27;19920;-73
2021/06/23 05:44:24;;;;;;;;;;;;;;;26.01;46.80;100617.28;5114252;27;20294;-74
2021/06/23 05:47:08;;;;;;;;;;;;;;;26.17;46.82;100620.19;5116073;27;19915;-73
2021/06/23 05:49:53;;;;;;;;;;;;;;;26.26;46.27;100611.34;5129068;27;19919;-73
2021/06/23 05:52:38;;;;;;;;;;;;;;;26.43;46.11;100615.00;5122329;27;20406;-73
2021/06/23 05:55:22;;;;;;;;;;;;;;;26.52;45.90;100620.81;5132840;27;19915;-72
2021/06/23 05:58:08;;;;;;;;;;;;;;;26.49;45.64;100614.09;5124520;27;19916;-72
2021/06/23 06:00:52;;;;;;;;;;;;;;;26.46;45.95;100619.75;5123211;27;19920;-72
2021/06/23 06:03:38;;;;;;;;;;;;;;;26.63;45.63;100624.22;5126491;27;19919;-73
2021/06/23 06:06:25;;;;;;;;;;;;;;;26.69;45.29;100625.28;5123301;27;19916;-73
2021/06/23 06:09:10;;;;;;;;;;;;;;;26.85;44.88;100625.38;5122393;27;19915;-73
2021/06/23 06:11:54;;;;;;;;;;;;;;;27.05;44.71;100623.41;5123393;27;19916;-74
2021/06/23 06:14:39;;;;;;;;;;;;;;;27.11;44.68;100626.50;5120774;27;20291;-72
2021/06/23 06:17:24;;;;;;;;;;;;;;;27.29;44.36;100623.31;5126387;27;19919;-72
2021/06/23 06:20:10;;;;;;;;;;;;;;;27.41;43.78;100626.25;5122362;27;19920;-72
2021/06/23 06:22:55;;;;;;;;;;;;;;;27.49;43.66;100626.88;5122055;27;19915;-72
2021/06/23 06:25:39;;;;;;;;;;;;;;;27.64;43.61;100628.16;5122588;27;19916;-72
2021/06/23 06:28:26;;;;;;;;;;;;;;;27.83;43.24;100627.31;5121144;27;19916;-72
2021/06/23 06:31:11;;;;;;;;;;;;;;;27.95;43.23;100623.81;5124812;27;19916;-73
2021/06/23 06:33:55;;;;;;;;;;;;;;;27.92;43.16;100635.88;5116561;27;19915;-72
2021/06/23 06:36:40;;;;;;;;;;;;;;;27.64;43.32;100631.72;5121742;27;19919;-72
2021/06/23 06:39:25;;;;;;;;;;;;;;;27.54;43.94;100637.56;5125732;27;19916;-73
2021/06/23 06:42:09;;;;;;;;;;;;;;;27.55;44.04;100639.94;5124252;27;19919;-72
2021/06/23 06:44:54;;;;;;;;;;;;;;;27.46;44.44;100636.13;5119950;27;20275;-71
2021/06/23 06:47:40;;;;;;;;;;;;;;;27.54;44.80;100643.16;5121107;27;20395;-70
2021/06/23 06:50:25;;;;;;;;;;;;;;;27.66;44.19;100636.91;5116030;27;19915;-71
2021/06/23 06:53:11;;;;;;;;;;;;;;;27.82;44.31;100645.31;5122323;27;19915;-71
2021/06/23 06:55:55;;;;;;;;;;;;;;;27.93;44.14;100645.84;5127191;27;20374;-73
2021/06/23 06:58:40;;;;;;;;;;;;;;;28.07;43.59;100641.91;5113284;27;19916;-71
2021/06/23 07:01:24;;;;;;;;;;;;;;;27.83;44.68;100641.31;5113124;27;19920;-69
2021/06/23 07:04:09;;;;;;;;;;;;;;;27.86;44.47;100646.00;5117130;27;19915;-70
2021/06/23 07:06:53;;;;;;;;;;;;;;;27.99;43.83;100646.88;5139080;27;19919;-70
2021/06/23 07:09:38;;;;;;;;;;;;;;;28.02;43.47;100653.63;5120536;27;19916;-72
2021/06/23 07:12:23;;;;;;;;;;;;;;;28.23;43.17;100655.16;5104809;28;20301;-72
2021/06/23 07:15:08;;;;;;;;;;;;;;;28.20;43.83;100654.00;5124765;27;19916;-73
2021/06/23 07:17:53;;;;;;;;;;;;;;;28.27;43.41;100648.25;5122032;27;19920;-73
2021/06/23 07:20:38;;;;;;;;;;;;;;;28.31;43.64;100656.53;5127969;27;19920;-72
2021/06/23 07:23:22;;;;;;;;;;;;;;;28.37;43.44;100654.78;5112282;28;19916;-75
2021/06/23 07:26:07;;;;;;;;;;;;;;;28.56;42.85;100653.09;5096897;27;19919;-72
2021/06/23 07:28:53;;;;;;;;;;;;;;;28.56;43.03;100655.88;5097627;28;19916;-72
2021/06/23 07:31:44;;;;;;;;;;;;;;;29.07;42.88;100654.91;5118116;27;19915;-74
2021/06/23 07:37:17;;;;;;;;;;;;;;;28.69;43.57;100663.16;5118282;27;19916;-75
2021/06/23 07:40:03;;;;;;;;;;;;;;;28.64;43.59;100658.09;5131124;27;19919;-75
2021/06/23 07:42:48;;;;;;;;;;;;;;;28.76;43.84;100657.38;5128311;27;19919;-72
2021/06/23 07:45:32;;;;;;;;;;;;;;;28.87;44.07;100652.25;5121415;27;19916;-71
2021/06/23 07:48:19;;;;;;;;;;;;;;;28.69;45.59;100651.94;5113041;28;19916;-71
2021/06/23 07:51:16;;;;;;;;;;;;;;;28.73;45.09;100649.88;5113750;28;20390;-72
2021/06/23 07:54:10;;;;;;;;;;;;;;;30.30;41.42;100645.94;5107320;27;19916;-72
2021/06/23 08:11:51;;;;;;;;;;;;;;;33.97;33.18;100622.78;5118783;27;19923;-71
2021/06/23 08:14:36;;;;;;;;;;;;;;;36.38;29.12;100633.88;5125259;27;19916;-69
2021/06/23 08:17:21;;;;;;;;;;;;;;;34.87;31.44;100629.06;5121894;28;19920;-70
2021/06/23 08:20:06;;;;;;;;;;;;;;;36.04;29.73;100623.34;5126008;27;19924;-71
2021/06/23 08:22:50;;;;;;;;;;;;;;;37.84;27.03;100631.25;5120042;28;19915;-72
2021/06/23 08:25:35;;;;;;;;;;;;;;;37.28;27.53;100629.22;5130048;27;19915;-71
2021/06/23 08:28:22;;;;;;;;;;;;;;;37.10;27.35;100616.16;5121880;27;19923;-71
2021/06/23 08:31:07;;;;;;;;;;;;;;;39.19;24.43;100627.66;5114367;28;19916;-71
2021/06/23 08:33:53;;;;;;;;;;;;;;;38.97;25.02;100617.00;5115266;27;20213;-72
2021/06/23 08:36:37;;;;;;;;;;;;;;;39.72;23.96;100624.53;5124309;27;19919;-72
2021/06/23 08:39:22;;;;;;;;;;;;;;;41.00;22.03;100631.84;5123622;27;19924;-72
2021/06/23 08:42:08;;;;;;;;;;;;;;;41.23;21.71;100624.72;5120537;27;19920;-73
2021/06/23 08:44:52;;;;;;;;;;;;;;;39.13;23.77;100630.50;5119919;27;19916;-74
2021/06/23 08:47:41;;;;;;;;;;;;;;;38.67;24.80;100621.56;5122451;27;19919;-74
2021/06/23 08:50:26;;;;;;;;;;;;;;;40.33;23.09;100635.06;5129606;27;19915;-73
2021/06/23 08:53:11;;;;;;;;;;;;;;;37.31;26.61;100629.00;5109706;27;19916;-74
2021/06/23 08:55:55;;;;;;;;;;;;;;;39.42;24.62;100625.63;5125712;27;19916;-75
2021/06/23 08:58:39;;;;;;;;;;;;;;;39.77;23.98;100625.88;5115221;27;19916;-76
2021/06/23 09:01:24;;;;;;;;;;;;;;;37.89;26.20;100632.56;5130210;27;19919;-75
2021/06/23 09:04:14;;;;;;;;;;;;;;;36.96;26.97;100626.31;5107723;27;19915;-74
2021/06/23 09:06:59;;;;;;;;;;;;;;;35.25;30.07;100623.38;5129243;27;20287;-72
2021/06/23 09:09:44;;;;;;;;;;;;;;;34.37;31.53;100625.22;5125238;27;19919;-72
2021/06/23 09:12:28;;;;;;;;;;;;;;;33.37;33.79;100635.69;5116990;27;19915;-72
2021/06/23 09:15:32;;;;;;;;;;;;;;;32.73;35.19;100637.78;5115864;27;19920;-71
2021/06/23 09:18:26;;;;;;;;;;;;;;;31.93;36.08;100643.56;5120869;27;19915;-70
2021/06/23 09:21:11;;;;;;;;;;;;;;;31.75;37.38;100649.88;5120475;27;20295;-71
2021/06/23 09:23:59;;;;;;;;;;;;;;;31.53;37.57;100635.09;5129452;27;20366;-72
2021/06/23 09:26:44;;;;;;;;;;;;;;;31.60;37.46;100650.91;5125036;27;19916;-72
2021/06/23 09:29:29;;;;;;;;;;;;;;;31.32;38.04;100645.13;5114327;27;19915;-71
2021/06/23 09:32:13;;;;;;;;;;;;;;;31.34;38.05;100639.06;5129221;27;20306;-72
2021/06/23 09:34:59;;;;;;;;;;;;;;;31.32;38.50;100653.56;5130415;27;19915;-70
2021/06/23 09:37:43;;;;;;;;;;;;;;;31.30;38.21;100644.78;5119822;27;19920;-70
2021/06/23 09:40:30;;;;;;;;;;;;;;;31.28;38.56;100654.94;5128654;27;20315;-72
2021/06/23 09:43:15;;;;;;;;;;;;;;;31.40;37.48;100654.06;5131096;27;19916;-73
2021/06/23 09:45:59;;;;;;;;;;;;;;;31.35;38.46;100652.63;5118481;27;20299;-72
2021/06/23 09:48:45;;;;;;;;;;;;;;;31.17;38.61;100658.16;5114353;27;19920;-72
2021/06/23 09:51:36;;;;;;;;;;;;;;;31.05;39.33;100644.94;5111491;27;19916;-74
2021/06/23 09:54:23;;;;;;;;;;;;;;;31.06;39.21;100643.69;5131456;27;19924;-73
2021/06/23 09:57:12;;;;;;;;;;;;;;;31.05;38.96;100644.94;5133711;27;20299;-74
2021/06/23 10:00:08;;;;;;;;;;;;;;;31.06;39.88;100645.72;5132099;27;20290;-72
2021/06/23 10:03:02;;;;;;;;;;;;;;;31.08;39.15;100646.84;5132739;27;19927;-72
2021/06/23 10:05:47;;;;;;;;;;;;;;;31.14;38.98;100658.28;5117786;27;20370;-72
2021/06/23 10:08:32;;;;;;;;;;;;;;;31.13;38.89;100657.50;5115524;27;19916;-72
2021/06/23 10:11:29;;;;;;;;;;;;;;;31.17;39.41;100652.53;5119157;27;19916;-71
2021/06/23 10:14:14;;;;;;;;;;;;;;;31.23;38.43;100656.31;5116836;27;19924;-72
2021/06/23 10:17:03;;;;;;;;;;;;;;;31.22;38.81;100653.97;5119301;27;19915;-71
2021/06/23 10:19:48;;;;;;;;;;;;;;;31.30;38.59;100660.88;5113883;28;19916;-71
2021/06/23 10:22:33;;;;;;;;;;;;;;;31.48;38.50;100654.59;5126202;27;20368;-72
2021/06/23 10:25:18;;;;;;;;;;;;;;;31.49;37.21;100651.31;5124879;27;19916;-71
2021/06/23 10:28:03;;;;;;;;;;;;;;;31.57;36.59;100647.00;5113536;27;19915;-72
2021/06/23 10:30:51;;;;;;;;;;;;;;;31.51;37.06;100648.81;5116944;27;19916;-72
2021/06/23 10:33:38;;;;;;;;;;;;;;;31.42;37.87;100648.78;5123517;27;19942;-72
2021/06/23 10:36:24;;;;;;;;;;;;;;;31.46;36.74;100651.44;5118847;27;19919;-72
2021/06/23 10:39:09;;;;;;;;;;;;;;;31.54;38.69;100647.91;5115428;27;20407;-71
2021/06/23 10:41:57;;;;;;;;;;;;;;;31.47;38.02;100647.38;5119197;27;19920;-72
2021/06/23 10:44:47;;;;;;;;;;;;;;;31.44;39.14;100649.88;5122745;27;19924;-72
2021/06/23 10:47:41;;;;;;;;;;;;;;;31.51;38.33;100642.41;5122099;27;19915;-72
2021/06/23 10:50:33;;;;;;;;;;;;;;;31.43;38.18;100639.09;5127526;27;20371;-72
2021/06/23 10:53:32;;;;;;;;;;;;;;;31.35;38.65;100635.75;5123733;27;19915;-72
2021/06/23 10:56:40;;;;;;;;;;;;;;;31.25;38.17;100628.53;5107183;27;20174;-71
2021/06/23 10:59:32;;;;;;;;;;;;;;;31.69;37.21;100625.66;5123817;27;19915;-72
2021/06/23 11:02:17;;;;;;;;;;;;;;;31.51;38.40;100617.09;5131722;27;19919;-71
2021/06/23 11:05:03;;;;;;;;;;;;;;;31.39;38.01;100613.91;5121631;27;19923;-74
2021/06/23 11:07:53;;;;;;;;;;;;;;;31.57;38.22;100618.88;5126915;27;19916;-73
2021/06/23 11:10:40;;;;;;;;;;;;;;;31.55;37.67;100628.97;5115066;27;19919;-74
2021/06/23 11:13:35;;;;;;;;;;;;;;;31.50;38.29;100618.34;5128954;27;19916;-74
2021/06/23 11:16:31;;;;;;;;;;;;;;;31.43;38.19;100611.78;5119996;27;19924;-73
2021/06/23 11:19:15;;;;;;;;;;;;;;;31.59;35.87;100610.78;5116109;27;19915;-74
2021/06/23 11:22:16;;;;;;;;;;;;;;;31.71;36.74;100609.09;5127237;27;19927;-74
2021/06/23 11:25:19;;;;;;;;;;;;;;;31.68;36.91;100612.84;5121835;27;19916;-74
2021/06/23 11:28:07;;;;;;;;;;;;;;;31.62;35.47;100614.69;5114276;27;19919;-74
2021/06/23 11:30:51;;;;;;;;;;;;;;;31.67;36.23;100605.66;5118577;27;19919;-74
2021/06/23 11:33:36;;;;;;;;;;;;;;;31.88;35.70;100609.63;5119506;27;20363;-74
2021/06/23 11:36:20;;;;;;;;;;;;;;;31.88;35.91;100598.38;5132054;27;19924;-73
2021/06/23 11:39:06;;;;;;;;;;;;;;;31.83;37.09;100608.22;5120367;27;20367;-72
2021/06/23 11:41:51;;;;;;;;;;;;;;;32.06;35.95;100616.06;5113731;27;19919;-74
2021/06/23 11:44:38;;;;;;;;;;;;;;;32.09;36.22;100617.97;5114664;27;19916;-74
2021/06/23 11:47:22;;;;;;;;;;;;;;;32.11;35.61;100604.22;5117976;27;20315;-74
2021/06/23 11:50:07;;;;;;;;;;;;;;;31.85;36.04;100600.06;5121383;27;19916;-72
2021/06/23 11:52:52;;;;;;;;;;;;;;;31.97;35.84;100599.19;5119856;27;19916;-74
2021/06/23 11:55:37;;;;;;;;;;;;;;;31.95;35.79;100590.41;5113450;28;19916;-73
2021/06/23 11:58:22;;;;;;;;;;;;;;;32.07;35.57;100585.91;5119221;27;19923;-73
2021/06/23 12:01:07;;;;;;;;;;;;;;;32.25;32.07;100583.94;5115720;27;19927;-74
2021/06/23 12:03:54;;;;;;;;;;;;;;;32.14;35.52;100577.22;5120280;27;19920;-73
2021/06/23 12:06:39;;;;;;;;;;;;;;;32.28;35.51;100585.03;5120033;27;20283;-73
2021/06/23 12:09:23;;;;;;;;;;;;;;;32.48;34.60;100585.34;5115165;27;20387;-73
2021/06/23 12:12:08;;;;;;;;;;;;;;;32.41;31.68;100585.66;5110503;28;19934;-72
2021/06/23 12:14:52;;;;;;;;;;;;;;;32.60;31.05;100575.19;5116185;28;19916;-73
2021/06/23 12:17:37;;;;;;;;;;;;;;;32.29;30.67;100574.56;5122567;27;19920;-73
2021/06/23 12:20:24;;;;;;;;;;;;;;;32.06;30.84;100578.72;5117467;27;19924;-73
2021/06/23 12:23:09;;;;;;;;;;;;;;;31.91;33.29;100580.56;5126597;27;19931;-73
2021/06/23 12:25:54;;;;;;;;;;;;;;;32.15;31.53;100579.53;5123681;27;19920;-73
2021/06/23 12:28:39;;;;;;;;;;;;;;;32.28;30.82;100587.06;5121767;27;19915;-73
2021/06/23 12:31:25;;;;;;;;;;;;;;;32.51;29.05;100581.59;5119623;28;20154;-74
2021/06/23 12:34:10;;;;;;;;;;;;;;;32.64;30.57;100581.47;5117396;28;19916;-72
2021/06/23 12:36:55;;;;;;;;;;;;;;;32.61;30.51;100585.97;5099649;28;19915;-74
2021/06/23 12:39:40;;;;;;;;;;;;;;;32.55;28.29;100573.00;5119199;27;20291;-74
2021/06/23 12:42:25;;;;;;;;;;;;;;;32.40;28.90;100572.06;5119985;27;19924;-74
2021/06/23 12:45:11;;;;;;;;;;;;;;;32.53;29.49;100578.31;5126482;27;19924;-74
2021/06/23 12:47:56;;;;;;;;;;;;;;;32.68;28.92;100570.81;5124866;27;19916;-74
2021/06/23 12:50:40;;;;;;;;;;;;;;;32.53;28.36;100559.38;5125824;27;19920;-73
2021/06/23 12:53:25;;;;;;;;;;;;;;;32.64;28.80;100571.00;5121633;27;19920;-73
2021/06/23 12:56:10;;;;;;;;;;;;;;;32.69;27.98;100563.94;5128360;27;19915;-72
2021/06/23 12:58:55;;;;;;;;;;;;;;;32.77;26.76;100568.00;5123030;27;19919;-72
2021/06/23 13:01:39;;;;;;;;;;;;;;;32.78;27.75;100563.94;5122372;27;19923;-74
2021/06/23 13:04:25;;;;;;;;;;;;;;;32.71;28.46;100557.84;5130488;27;19915;-73
2021/06/23 13:07:10;;;;;;;;;;;;;;;32.49;28.20;100557.97;5101331;27;19915;-74
2021/06/23 13:09:54;;;;;;;;;;;;;;;32.12;30.43;100546.72;5121185;27;19920;-74
2021/06/23 13:12:39;;;;;;;;;;;;;;;32.21;30.05;100543.09;5127349;27;19915;-74
2021/06/23 13:15:24;;;;;;;;;;;;;;;32.14;30.43;100535.00;5128251;27;19915;-74
2021/06/23 13:18:10;;;;;;;;;;;;;;;32.27;31.93;100538.44;5122004;27;19915;-74
2021/06/23 13:20:55;;;;;;;;;;;;;;;32.36;32.72;100532.00;5128108;27;19916;-74
2021/06/23 13:23:39;;;;;;;;;;;;;;;32.31;31.77;100541.06;5127542;27;20284;-73
2021/06/23 13:26:25;;;;;;;;;;;;;;;32.10;32.21;100542.78;5125848;27;19919;-72
2021/06/23 13:29:10;;;;;;;;;;;;;;;32.28;30.27;100545.63;5126646;27;20287;-73
2021/06/23 13:31:55;;;;;;;;;;;;;;;32.31;31.00;100547.50;5125856;27;19919;-74
2021/06/23 13:34:39;;;;;;;;;;;;;;;32.28;31.54;100550.47;5125919;27;19915;-73
2021/06/23 13:37:24;;;;;;;;;;;;;;;32.30;32.03;100551.59;5129302;27;19916;-72
2021/06/23 13:40:10;;;;;;;;;;;;;;;32.13;31.66;100544.69;5128426;27;20291;-72
2021/06/23 13:42:55;;;;;;;;;;;;;;;32.28;31.81;100542.81;5124744;27;19920;-73
2021/06/23 13:45:40;;;;;;;;;;;;;;;32.16;31.32;100544.50;5116051;27;19916;-74
2021/06/23 13:48:26;;;;;;;;;;;;;;;32.08;31.90;100545.28;5126191;27;19920;-73
2021/06/23 13:51:10;;;;;;;;;;;;;;;32.09;32.24;100536.38;5123143;27;19915;-72
2021/06/23 13:53:55;;;;;;;;;;;;;;;32.13;32.37;100541.88;5127220;27;19920;-74
2021/06/23 13:56:40;;;;;;;;;;;;;;;32.17;30.99;100532.00;5126751;27;19915;-74
2021/06/23 13:59:25;;;;;;;;;;;;;;;32.06;31.80;100537.28;5125354;27;20282;-72
2021/06/23 14:02:09;;;;;;;;;;;;;;;31.96;32.66;100537.75;5125539;27;19920;-73
2021/06/23 14:04:54;;;;;;;;;;;;;;;31.85;33.02;100538.97;5118442;27;19916;-73
2021/06/23 14:07:38;;;;;;;;;;;;;;;31.83;33.48;100530.22;5123266;27;20383;-72
2021/06/23 14:10:23;;;;;;;;;;;;;;;31.72;33.64;100535.53;5129648;27;20705;-74
2021/06/23 14:13:07;;;;;;;;;;;;;;;31.83;34.03;100540.69;5122679;27;19915;-72
2021/06/23 14:15:52;;;;;;;;;;;;;;;31.71;34.04;100538.78;5122858;27;19916;-73
2021/06/23 14:18:36;;;;;;;;;;;;;;;31.64;34.77;100544.72;5123021;27;19915;-73
2021/06/23 14:21:21;;;;;;;;;;;;;;;31.65;33.34;100551.88;5127339;27;19920;-72
2021/06/23 14:24:05;;;;;;;;;;;;;;;31.65;33.07;100554.69;5125847;27;20303;-74
2021/06/23 14:26:51;;;;;;;;;;;;;;;31.64;33.63;100547.53;5126289;27;20133;-74
2021/06/23 14:29:36;;;;;;;;;;;;;;;31.65;33.97;100549.84;5125342;27;19920;-74
2021/06/23 14:32:21;;;;;;;;;;;;;;;31.67;33.73;100541.75;5125662;27;19920;-74
2021/06/23 14:35:07;;;;;;;;;;;;;;;31.68;33.65;100546.13;5124062;27;19919;-73